Time;durP1;ratioP1;P1;durP2;ratioP2;P2;SDS_P1;SDS_P2;PMS_P1;PMS_P2;Temp;Humidity;BMP_temperature;BMP_pressure;BME280_temperature;BME280_humidity;BME280_pressure;Samples;Min_cycle;Max_cycle;Signal;HPM_P1;HPM_P2
2021/05/06 00:02:21;;;;;;;0.30;0.25;;;;;;;;;;5117898;28;20189;-40
2021/05/06 00:08:01;;;;;;;0.47;0.40;;;;;;;;;;5117488;28;20582;-40
2021/05/06 00:32:28;;;;;;;0.30;0.30;;;;;;;;;;5116867;28;20185;-40
2021/05/06 00:34:54;;;;;;;0.30;0.30;;;;;;;;;;5116805;28;20233;-40
2021/05/06 00:37:21;;;;;;;0.30;0.30;;;;;;;;;;5099821;28;20173;-40
2021/05/06 00:40:08;;;;;;;0.45;0.30;;;;;;;;;;5115468;28;20177;-40
2021/05/06 01:06:14;;;;;;;0.30;0.30;;;;;;;;;;5116825;28;20564;-40
2021/05/06 01:08:46;;;;;;;0.32;0.32;;;;;;;;;;5095953;28;20580;-40
2021/05/06 01:11:21;;;;;;;0.32;0.32;;;;;;;;;;5111908;28;20177;-40
2021/05/06 01:13:48;;;;;;;0.30;0.30;;;;;;;;;;5116440;28;20211;-40
2021/05/06 01:16:14;;;;;;;0.52;0.22;;;;;;;;;;5116614;28;20177;-40
2021/05/06 01:18:40;;;;;;;0.38;0.30;;;;;;;;;;5116359;28;20180;-40
2021/05/06 01:21:07;;;;;;;0.40;0.30;;;;;;;;;;5115937;28;20563;-40
2021/05/06 01:23:34;;;;;;;0.40;0.40;;;;;;;;;;5116891;28;20172;-40
2021/05/06 01:26:07;;;;;;;0.30;0.30;;;;;;;;;;5104560;28;20178;-40
2021/05/06 01:28:38;;;;;;;0.22;0.22;;;;;;;;;;5097314;28;20189;-40
2021/05/06 01:31:12;;;;;;;0.20;0.20;;;;;;;;;;5115399;28;20184;-40
2021/05/06 01:36:16;;;;;;;0.60;0.30;;;;;;;;;;5115211;28;20184;-40
2021/05/06 01:39:36;;;;;;;0.30;0.30;;;;;;;;;;5115533;28;20230;-40
2021/05/06 01:46:54;;;;;;;0.30;0.30;;;;;;;;;;5114904;28;20702;-40
2021/05/06 01:57:40;;;;;;;0.20;0.20;;;;;;;;;;5114796;28;20239;-40
2021/05/06 02:00:18;;;;;;;0.75;0.35;;;;;;;;;;5115163;28;20173;-40
2021/05/06 02:02:44;;;;;;;0.20;0.20;;;;;;;;;;5114632;28;20197;-40
2021/05/06 02:05:11;;;;;;;0.30;0.20;;;;;;;;;;5114145;28;20204;-40
2021/05/06 02:07:39;;;;;;;0.22;0.22;;;;;;;;;;5108077;28;20181;-40
2021/05/06 02:10:10;;;;;;;1.05;0.30;;;;;;;;;;5115488;28;20176;-40
2021/05/06 02:12:38;;;;;;;0.28;0.28;;;;;;;;;;5096923;28;20609;-40
2021/05/06 02:15:07;;;;;;;0.40;0.38;;;;;;;;;;5115362;28;20288;-40
2021/05/06 02:17:34;;;;;;;0.38;0.38;;;;;;;;;;5108767;28;20173;-40
2021/05/06 02:20:00;;;;;;;0.30;0.30;;;;;;;;;;5114762;28;20273;-40
2021/05/06 02:22:26;;;;;;;0.40;0.40;;;;;;;;;;5114531;28;20259;-40
2021/05/06 02:24:52;;;;;;;0.50;0.40;;;;;;;;;;5097777;28;20260;-40
2021/05/06 02:27:19;;;;;;;0.10;0.10;;;;;;;;;;5113524;28;20177;-40
2021/05/06 02:29:46;;;;;;;0.20;0.20;;;;;;;;;;5114283;28;20203;-40
2021/05/06 02:32:12;;;;;;;0.35;0.20;;;;;;;;;;5114614;28;20483;-40
2021/05/06 02:34:38;;;;;;;0.40;0.30;;;;;;;;;;5114549;28;20207;-40
2021/05/06 02:37:04;;;;;;;0.20;0.20;;;;;;;;;;5114482;28;20244;-40
2021/05/06 02:39:31;;;;;;;0.28;0.28;;;;;;;;;;5114369;28;20202;-40
2021/05/06 02:41:57;;;;;;;0.28;0.25;;;;;;;;;;5114278;28;20210;-40
2021/05/06 02:44:23;;;;;;;0.22;0.22;;;;;;;;;;5114642;28;20567;-40
2021/05/06 02:46:49;;;;;;;0.38;0.28;;;;;;;;;;5115046;28;20211;-40
2021/05/06 02:49:15;;;;;;;0.40;0.32;;;;;;;;;;5113994;28;20208;-40
2021/05/06 02:51:47;;;;;;;0.20;0.20;;;;;;;;;;5104732;28;20182;-40
2021/05/06 02:54:13;;;;;;;0.52;0.45;;;;;;;;;;5099850;28;20245;-40
2021/05/06 02:59:37;;;;;;;0.70;0.40;;;;;;;;;;5114967;28;20336;-40
2021/05/06 03:04:49;;;;;;;0.30;0.30;;;;;;;;;;5114037;28;20191;-40
2021/05/06 03:07:19;;;;;;;0.98;0.40;;;;;;;;;;5107783;28;20173;-40
2021/05/06 03:25:11;;;;;;;0.20;0.20;;;;;;;;;;5094410;28;20737;-40
2021/05/06 03:27:46;;;;;;;0.20;0.20;;;;;;;;;;5094267;28;20216;-40
2021/05/06 03:46:41;;;;;;;0.30;0.30;;;;;;;;;;5114246;28;20536;-40
2021/05/06 04:18:59;;;;;;;8.05;1.55;;;;;;;;;;5117270;28;20218;-40
2021/05/06 04:37:48;;;;;;;75.65;18.80;;;;;;;;;;5117501;28;20193;-40
2021/05/06 05:06:27;;;;;;;48.35;13.20;;;;;;;;;;5116373;28;20176;-40
2021/05/06 05:19:44;;;;;;;38.35;10.77;;;;;;;;;;5113586;28;20277;-40
2021/05/06 05:27:24;;;;;;;34.08;10.20;;;;;;;;;;5115955;28;20185;-40
2021/05/06 05:29:51;;;;;;;38.58;10.63;;;;;;;;;;5114840;28;20203;-40
2021/05/06 05:32:17;;;;;;;35.00;9.75;;;;;;;;;;5095388;28;20541;-40
2021/05/06 05:34:46;;;;;;;28.70;9.95;;;;;;;;;;5113428;28;20292;-40
2021/05/06 05:37:18;;;;;;;30.70;10.60;;;;;;;;;;5115135;28;20193;-40
2021/05/06 05:39:59;;;;;;;27.30;9.55;;;;;;;;;;5113327;28;20214;-40
2021/05/06 05:42:50;;;;;;;27.83;8.85;;;;;;;;;;5115446;28;20640;-40
2021/05/06 05:56:25;;;;;;;22.55;8.40;;;;;;;;;;5110517;28;20219;-40
2021/05/06 05:58:51;;;;;;;24.25;8.27;;;;;;;;;;5096638;28;20244;-40
2021/05/06 06:01:18;;;;;;;25.42;8.07;;;;;;;;;;5115141;28;20552;-40
2021/05/06 06:03:44;;;;;;;18.40;7.55;;;;;;;;;;5113532;28;20177;-40
2021/05/06 06:06:10;;;;;;;16.33;6.63;;;;;;;;;;5114725;28;20560;-40
2021/05/06 06:08:37;;;;;;;21.70;7.35;;;;;;;;;;5115260;28;20256;-40
2021/05/06 06:11:04;;;;;;;18.13;6.03;;;;;;;;;;5113857;28;20559;-40
2021/05/06 06:13:30;;;;;;;16.17;6.38;;;;;;;;;;5115442;28;20280;-40
2021/05/06 06:16:30;;;;;;;20.55;7.38;;;;;;;;;;5115251;28;20448;-40
2021/05/06 06:18:52;;;;;;;17.23;6.18;;;;;;;;;;5110519;28;20625;-40
2021/05/06 06:21:23;;;;;;;19.73;7.10;;;;;;;;;;5114543;28;20185;-40
2021/05/06 06:23:49;;;;;;;16.83;6.13;;;;;;;;;;5114393;28;20718;-40
2021/05/06 06:26:15;;;;;;;15.20;6.18;;;;;;;;;;5115379;28;20347;-40
2021/05/06 06:28:43;;;;;;;19.58;6.32;;;;;;;;;;5115281;28;20169;-40
2021/05/06 06:33:39;;;;;;;14.05;6.18;;;;;;;;;;5098030;28;20201;-40
2021/05/06 06:36:05;;;;;;;14.95;5.30;;;;;;;;;;5114373;28;20184;-40
2021/05/06 06:38:31;;;;;;;15.75;5.07;;;;;;;;;;5115286;28;20259;-40
2021/05/06 06:40:57;;;;;;;17.20;5.78;;;;;;;;;;5114614;28;20161;-40
2021/05/06 06:43:23;;;;;;;12.75;5.32;;;;;;;;;;5114430;28;20579;-40
2021/05/06 06:45:49;;;;;;;11.23;4.75;;;;;;;;;;5115059;28;20189;-40
2021/05/06 06:48:17;;;;;;;9.52;4.35;;;;;;;;;;5115037;28;20211;-40
2021/05/06 06:50:43;;;;;;;13.65;5.07;;;;;;;;;;5112787;28;20588;-40
2021/05/06 06:53:12;;;;;;;13.00;5.07;;;;;;;;;;5114799;28;20181;-40
2021/05/06 06:55:38;;;;;;;11.55;5.15;;;;;;;;;;5115323;28;20180;-40
2021/05/06 06:58:08;;;;;;;11.65;5.03;;;;;;;;;;5114783;28;20165;-40
2021/05/06 07:00:34;;;;;;;9.38;3.83;;;;;;;;;;5114164;28;20177;-40
2021/05/06 07:03:00;;;;;;;10.80;4.68;;;;;;;;;;5096932;28;20177;-40
2021/05/06 07:05:26;;;;;;;11.45;4.65;;;;;;;;;;5111043;28;20200;-40
2021/05/06 07:07:52;;;;;;;11.15;3.95;;;;;;;;;;5096832;28;20561;-40
2021/05/06 07:10:18;;;;;;;10.27;4.10;;;;;;;;;;5110085;28;20512;-40
2021/05/06 07:12:44;;;;;;;7.72;3.97;;;;;;;;;;5110603;28;20620;-40
2021/05/06 07:15:11;;;;;;;11.70;4.38;;;;;;;;;;5112823;28;20635;-40
2021/05/06 07:17:37;;;;;;;10.77;4.10;;;;;;;;;;5112436;28;20157;-40
2021/05/06 07:20:03;;;;;;;10.43;4.18;;;;;;;;;;5113048;28;20551;-40
2021/05/06 07:22:29;;;;;;;7.40;3.95;;;;;;;;;;5111307;28;20490;-40
2021/05/06 07:24:55;;;;;;;8.82;3.47;;;;;;;;;;5113659;28;20184;-40
2021/05/06 07:27:21;;;;;;;8.27;3.70;;;;;;;;;;5114274;28;20209;-40
2021/05/06 07:29:47;;;;;;;6.13;2.90;;;;;;;;;;5108352;28;20291;-40
2021/05/06 07:32:13;;;;;;;7.10;3.35;;;;;;;;;;5114101;28;20184;-40
2021/05/06 07:34:39;;;;;;;5.35;3.13;;;;;;;;;;5125385;28;20258;-40
2021/05/06 07:37:05;;;;;;;6.65;3.58;;;;;;;;;;5117139;28;20584;-40
2021/05/06 07:39:31;;;;;;;8.15;3.78;;;;;;;;;;5118263;28;20177;-40
2021/05/06 07:41:57;;;;;;;6.70;3.08;;;;;;;;;;5117805;28;20172;-40
2021/05/06 07:44:23;;;;;;;7.28;3.80;;;;;;;;;;5111418;28;20181;-40
2021/05/06 07:46:49;;;;;;;7.30;3.38;;;;;;;;;;5115859;28;20181;-40
2021/05/06 07:49:15;;;;;;;7.78;3.35;;;;;;;;;;5097818;28;20516;-40
2021/05/06 07:51:41;;;;;;;7.50;2.97;;;;;;;;;;5117115;28;20173;-40
2021/05/06 07:54:09;;;;;;;7.70;3.05;;;;;;;;;;5104337;28;20636;-40
2021/05/06 07:56:35;;;;;;;6.05;2.80;;;;;;;;;;5097870;28;20172;-40
2021/05/06 07:59:01;;;;;;;7.13;2.72;;;;;;;;;;5097706;28;20237;-40
2021/05/06 08:01:27;;;;;;;8.43;2.80;;;;;;;;;;5097224;28;20166;-40
2021/05/06 08:03:53;;;;;;;5.80;2.53;;;;;;;;;;5097664;28;20170;-40
2021/05/06 08:06:20;;;;;;;4.85;3.08;;;;;;;;;;5097645;28;20173;-40
2021/05/06 08:08:46;;;;;;;4.68;2.40;;;;;;;;;;5098468;28;20250;-40
2021/05/06 08:11:12;;;;;;;4.50;2.63;;;;;;;;;;5096734;28;20556;-40
2021/05/06 08:13:38;;;;;;;4.30;2.47;;;;;;;;;;5116206;28;20205;-40
2021/05/06 08:16:04;;;;;;;6.10;2.40;;;;;;;;;;5117897;28;20283;-40
2021/05/06 08:18:30;;;;;;;5.88;2.40;;;;;;;;;;5117212;28;20203;-40
2021/05/06 08:20:56;;;;;;;5.22;2.25;;;;;;;;;;5117010;28;20559;-41
2021/05/06 08:23:22;;;;;;;5.93;2.65;;;;;;;;;;5116976;28;20180;-41
2021/05/06 08:25:48;;;;;;;6.57;2.55;;;;;;;;;;5103691;28;20540;-41
2021/05/06 08:28:14;;;;;;;4.28;2.67;;;;;;;;;;5111597;28;20298;-41
2021/05/06 08:30:40;;;;;;;3.92;1.95;;;;;;;;;;5117164;28;20165;-41
2021/05/06 08:33:06;;;;;;;4.15;2.00;;;;;;;;;;5117426;28;20169;-41
2021/05/06 08:35:32;;;;;;;3.53;2.03;;;;;;;;;;5116420;28;20177;-41
2021/05/06 08:37:58;;;;;;;4.25;2.35;;;;;;;;;;5117071;28;20173;-41
2021/05/06 08:40:24;;;;;;;4.78;2.20;;;;;;;;;;5112165;28;20231;-41
2021/05/06 08:42:53;;;;;;;3.22;1.85;;;;;;;;;;5096451;28;20227;-41
2021/05/06 08:45:20;;;;;;;4.13;2.03;;;;;;;;;;5097001;28;20174;-41
2021/05/06 08:47:46;;;;;;;3.47;1.98;;;;;;;;;;5095866;28;20204;-41
2021/05/06 08:50:16;;;;;;;5.00;2.38;;;;;;;;;;5105035;28;20283;-41
2021/05/06 08:52:42;;;;;;;3.83;2.15;;;;;;;;;;5116367;28;20173;-41
2021/05/06 08:55:08;;;;;;;3.88;1.90;;;;;;;;;;5116996;28;20193;-41
2021/05/06 08:57:34;;;;;;;4.60;2.00;;;;;;;;;;5103773;28;20180;-41
2021/05/06 09:00:00;;;;;;;4.88;1.80;;;;;;;;;;5096741;28;20273;-41
2021/05/06 09:02:26;;;;;;;3.35;1.80;;;;;;;;;;5095977;28;20257;-41
2021/05/06 09:04:52;;;;;;;3.58;1.83;;;;;;;;;;5096732;28;20162;-41
2021/05/06 09:07:18;;;;;;;3.40;1.73;;;;;;;;;;5096230;28;20647;-41
2021/05/06 09:09:48;;;;;;;3.22;1.88;;;;;;;;;;5096544;28;20174;-41
2021/05/06 09:12:14;;;;;;;3.30;1.85;;;;;;;;;;5097031;28;20178;-41
2021/05/06 09:14:48;;;;;;;4.22;1.90;;;;;;;;;;5096492;28;20206;-41
2021/05/06 09:17:24;;;;;;;3.80;2.00;;;;;;;;;;5114960;28;20176;-41
2021/05/06 09:20:05;;;;;;;2.10;1.70;;;;;;;;;;5116646;28;20173;-41
2021/05/06 09:22:35;;;;;;;2.67;1.60;;;;;;;;;;5116118;28;20294;-41
2021/05/06 09:25:20;;;;;;;3.38;1.60;;;;;;;;;;5116552;28;20249;-41
2021/05/06 09:27:46;;;;;;;2.63;1.30;;;;;;;;;;5114229;28;20177;-41
2021/05/06 09:30:13;;;;;;;3.22;1.70;;;;;;;;;;5096092;28;20216;-41
2021/05/06 09:32:39;;;;;;;2.90;1.70;;;;;;;;;;5106750;28;20276;-41
2021/05/06 09:35:05;;;;;;;4.03;1.67;;;;;;;;;;5116080;28;20283;-41
2021/05/06 09:37:38;;;;;;;2.53;1.60;;;;;;;;;;5114868;28;20169;-41
2021/05/06 09:40:07;;;;;;;2.25;1.40;;;;;;;;;;5107471;28;20169;-41
2021/05/06 09:42:36;;;;;;;3.10;1.42;;;;;;;;;;5115103;28;20222;-41
2021/05/06 09:45:02;;;;;;;4.22;1.70;;;;;;;;;;5114091;28;20522;-41
2021/05/06 09:47:28;;;;;;;3.80;1.48;;;;;;;;;;5116107;28;20180;-41
2021/05/06 09:49:54;;;;;;;1.48;1.20;;;;;;;;;;5111263;28;20173;-41
2021/05/06 09:52:20;;;;;;;2.85;1.67;;;;;;;;;;5114837;28;20188;-41
2021/05/06 09:54:48;;;;;;;1.85;1.38;;;;;;;;;;5115784;28;20214;-41
2021/05/06 09:57:24;;;;;;;2.30;1.30;;;;;;;;;;5115640;28;20169;-41
2021/05/06 09:59:50;;;;;;;2.30;1.20;;;;;;;;;;5114228;28;20848;-41
2021/05/06 10:02:17;;;;;;;3.17;1.67;;;;;;;;;;5115082;28;20185;-41
2021/05/06 10:04:45;;;;;;;2.45;1.50;;;;;;;;;;5115754;28;20271;-41
2021/05/06 10:07:25;;;;;;;3.80;1.67;;;;;;;;;;5115382;28;20699;-41
2021/05/06 10:09:54;;;;;;;2.05;1.30;;;;;;;;;;5113492;28;20188;-41
2021/05/06 10:12:21;;;;;;;1.38;1.10;;;;;;;;;;5115148;28;20169;-41
2021/05/06 10:14:47;;;;;;;2.42;1.25;;;;;;;;;;5100854;28;20201;-41
2021/05/06 10:17:14;;;;;;;1.42;1.23;;;;;;;;;;5096459;28;20265;-41
2021/05/06 10:19:41;;;;;;;3.70;1.33;;;;;;;;;;5103563;28;20180;-41
2021/05/06 10:22:08;;;;;;;2.53;1.42;;;;;;;;;;5114322;28;20530;-41
2021/05/06 10:24:34;;;;;;;1.15;1.05;;;;;;;;;;5115400;28;20173;-41
2021/05/06 10:27:01;;;;;;;1.38;1.00;;;;;;;;;;5115356;28;20165;-41
2021/05/06 10:29:27;;;;;;;2.17;1.00;;;;;;;;;;5115285;28;20184;-41
2021/05/06 10:31:53;;;;;;;2.25;1.13;;;;;;;;;;5113189;28;20177;-41
2021/05/06 10:34:19;;;;;;;1.42;1.20;;;;;;;;;;5114349;28;20312;-41
2021/05/06 10:36:47;;;;;;;3.22;1.30;;;;;;;;;;5115031;28;20240;-41
2021/05/06 10:39:13;;;;;;;1.85;1.02;;;;;;;;;;5106883;28;20762;-41
2021/05/06 10:41:39;;;;;;;1.23;1.13;;;;;;;;;;5113981;28;20268;-41
2021/05/06 10:44:06;;;;;;;1.75;1.02;;;;;;;;;;5115013;28;20181;-41
2021/05/06 10:46:56;;;;;;;3.15;1.40;;;;;;;;;;5115012;28;20199;-41
2021/05/06 10:49:22;;;;;;;2.15;1.42;;;;;;;;;;5113771;28;20189;-41
2021/05/06 10:51:58;;;;;;;1.20;1.00;;;;;;;;;;5094376;28;20441;-41
2021/05/06 10:54:24;;;;;;;0.98;0.80;;;;;;;;;;5114653;28;20306;-41
2021/05/06 10:56:50;;;;;;;1.30;0.93;;;;;;;;;;5115105;28;20172;-41
2021/05/06 10:59:23;;;;;;;1.17;0.90;;;;;;;;;;5114916;28;20177;-41
2021/05/06 11:01:49;;;;;;;1.67;1.00;;;;;;;;;;5113945;28;20195;-41
2021/05/06 11:04:15;;;;;;;1.27;0.90;;;;;;;;;;5113140;28;20230;-41
2021/05/06 11:06:43;;;;;;;0.98;0.90;;;;;;;;;;5112282;28;20304;-41
2021/05/06 11:09:28;;;;;;;1.42;0.88;;;;;;;;;;5114362;28;20183;-41
2021/05/06 11:12:13;;;;;;;1.58;0.95;;;;;;;;;;5118094;28;20173;-41
2021/05/06 11:14:59;;;;;;;2.35;0.90;;;;;;;;;;5105627;28;20209;-41
2021/05/06 11:17:26;;;;;;;1.40;0.90;;;;;;;;;;5117343;28;20736;-41
2021/05/06 11:19:52;;;;;;;1.27;1.02;;;;;;;;;;5115736;28;20276;-41
2021/05/06 11:22:37;;;;;;;1.40;0.80;;;;;;;;;;5111269;28;20221;-41
2021/05/06 11:25:23;;;;;;;2.08;1.20;;;;;;;;;;5110008;28;20443;-41
2021/05/06 11:27:49;;;;;;;1.83;1.08;;;;;;;;;;5107629;28;20169;-41
2021/05/06 11:30:33;;;;;;;1.48;0.90;;;;;;;;;;5116585;28;20177;-41
2021/05/06 11:33:18;;;;;;;1.77;1.00;;;;;;;;;;5108672;28;20177;-41
2021/05/06 11:35:59;;;;;;;1.30;1.00;;;;;;;;;;5112465;28;20584;-41
2021/05/06 11:38:38;;;;;;;0.70;0.70;;;;;;;;;;5118005;28;20188;-41
2021/05/06 11:41:07;;;;;;;1.02;0.90;;;;;;;;;;5113962;28;20165;-41
2021/05/06 11:43:34;;;;;;;1.17;0.90;;;;;;;;;;5117930;28;20188;-41
2021/05/06 11:46:13;;;;;;;1.00;0.90;;;;;;;;;;5118412;28;20560;-41
2021/05/06 11:48:40;;;;;;;1.45;0.95;;;;;;;;;;5118100;28;20556;-41
2021/05/06 11:51:06;;;;;;;1.05;0.80;;;;;;;;;;5115041;28;20177;-41
2021/05/06 11:53:34;;;;;;;1.00;0.80;;;;;;;;;;5117521;28;20272;-41
2021/05/06 11:56:09;;;;;;;1.10;0.77;;;;;;;;;;5117345;28;20165;-41
2021/05/06 11:58:38;;;;;;;1.40;0.90;;;;;;;;;;5118420;28;20539;-41
2021/05/06 12:01:05;;;;;;;0.60;0.60;;;;;;;;;;5099691;28;20454;-41
2021/05/06 12:03:38;;;;;;;0.63;0.63;;;;;;;;;;5118296;28;20524;-41
2021/05/06 12:06:04;;;;;;;1.27;0.90;;;;;;;;;;5116537;28;20169;-41
2021/05/06 12:08:33;;;;;;;2.67;0.90;;;;;;;;;;5117875;28;20165;-41
2021/05/06 12:11:03;;;;;;;1.85;0.93;;;;;;;;;;5117503;28;20544;-41
2021/05/06 12:13:36;;;;;;;1.25;0.77;;;;;;;;;;5100066;28;20199;-41
2021/05/06 12:16:16;;;;;;;0.90;0.77;;;;;;;;;;5117638;28;20192;-41
2021/05/06 12:18:42;;;;;;;0.85;0.73;;;;;;;;;;5118031;28;20165;-41
2021/05/06 12:21:09;;;;;;;1.00;0.73;;;;;;;;;;5116362;28;20181;-41
2021/05/06 12:23:36;;;;;;;1.23;0.80;;;;;;;;;;5115133;28;20177;-41
2021/05/06 12:26:15;;;;;;;1.00;0.70;;;;;;;;;;5117450;28;20216;-41
2021/05/06 12:28:41;;;;;;;1.05;0.75;;;;;;;;;;5117786;28;20208;-41
2021/05/06 12:31:07;;;;;;;1.00;0.80;;;;;;;;;;5117112;28;20201;-41
2021/05/06 12:33:34;;;;;;;0.98;0.77;;;;;;;;;;5117302;28;20193;-41
2021/05/06 12:36:00;;;;;;;0.75;0.70;;;;;;;;;;5117691;28;20440;-41
2021/05/06 12:38:26;;;;;;;0.75;0.50;;;;;;;;;;5115745;28;20277;-41
2021/05/06 12:40:53;;;;;;;1.00;0.70;;;;;;;;;;5116729;28;20176;-41
2021/05/06 12:43:29;;;;;;;0.75;0.70;;;;;;;;;;5117412;28;20176;-41
2021/05/06 12:46:04;;;;;;;0.60;0.60;;;;;;;;;;5117270;28;20153;-41
2021/05/06 12:48:41;;;;;;;0.70;0.70;;;;;;;;;;5117403;28;20188;-41
2021/05/06 12:51:08;;;;;;;0.95;0.70;;;;;;;;;;5115814;28;20191;-41
2021/05/06 12:53:34;;;;;;;0.68;0.60;;;;;;;;;;5112910;28;20245;-41
2021/05/06 12:56:01;;;;;;;0.60;0.60;;;;;;;;;;5114406;28;20205;-41
2021/05/06 12:58:28;;;;;;;0.60;0.60;;;;;;;;;;5116462;28;20181;-41
2021/05/06 13:00:55;;;;;;;1.48;0.70;;;;;;;;;;5108458;28;20231;-41
2021/05/06 13:03:31;;;;;;;0.75;0.68;;;;;;;;;;5096514;28;20564;-41
2021/05/06 13:06:03;;;;;;;0.80;0.80;;;;;;;;;;5114960;28;20189;-41
2021/05/06 13:08:39;;;;;;;0.75;0.68;;;;;;;;;;5115239;28;20305;-41
2021/05/06 13:11:06;;;;;;;1.20;0.80;;;;;;;;;;5113638;28;20208;-41
2021/05/06 13:13:36;;;;;;;0.80;0.80;;;;;;;;;;5116426;28;20165;-41
2021/05/06 13:16:03;;;;;;;2.00;0.77;;;;;;;;;;5116791;28;20166;-41
2021/05/06 13:18:29;;;;;;;1.15;0.90;;;;;;;;;;5113560;28;20486;-41
2021/05/06 13:20:55;;;;;;;3.10;0.73;;;;;;;;;;5095684;28;20212;-41
2021/05/06 13:23:31;;;;;;;2.65;0.93;;;;;;;;;;5112654;28;20184;-41
2021/05/06 13:25:58;;;;;;;2.22;0.77;;;;;;;;;;5114234;28;20205;-41
2021/05/06 13:28:34;;;;;;;4.60;0.80;;;;;;;;;;5103934;28;20599;-41
2021/05/06 13:31:07;;;;;;;2.15;0.70;;;;;;;;;;5095549;28;20189;-41
2021/05/06 13:33:33;;;;;;;2.85;0.65;;;;;;;;;;5095691;28;20178;-41
2021/05/06 13:36:05;;;;;;;1.40;0.90;;;;;;;;;;5095835;28;20166;-41
2021/05/06 13:38:50;;;;;;;2.50;1.00;;;;;;;;;;5096095;28;20245;-41
2021/05/06 13:41:17;;;;;;;0.73;0.70;;;;;;;;;;5115007;28;20226;-41
2021/05/06 13:43:43;;;;;;;2.42;1.00;;;;;;;;;;5099840;28;20170;-41
2021/05/06 13:46:13;;;;;;;2.45;0.82;;;;;;;;;;5096820;28;20175;-41
2021/05/06 13:48:39;;;;;;;1.65;0.60;;;;;;;;;;5116162;28;20216;-41
2021/05/06 13:51:08;;;;;;;1.08;0.70;;;;;;;;;;5091754;28;20218;-41
2021/05/06 13:53:34;;;;;;;0.70;0.70;;;;;;;;;;5116143;28;20267;-41
2021/05/06 13:56:00;;;;;;;2.15;0.80;;;;;;;;;;5115226;28;20514;-41
2021/05/06 13:58:26;;;;;;;1.05;0.65;;;;;;;;;;5103726;28;20189;-41
2021/05/06 14:00:52;;;;;;;2.03;0.80;;;;;;;;;;5094806;28;20193;-41
2021/05/06 14:03:18;;;;;;;1.52;1.15;;;;;;;;;;5115430;28;20187;-41
2021/05/06 14:05:44;;;;;;;1.52;0.73;;;;;;;;;;5115934;28;20222;-41
2021/05/06 14:08:14;;;;;;;1.00;0.90;;;;;;;;;;5115438;28;20229;-41
2021/05/06 14:10:40;;;;;;;1.42;0.80;;;;;;;;;;5114571;28;20603;-41
2021/05/06 14:13:06;;;;;;;1.63;0.50;;;;;;;;;;5115429;28;20556;-41
2021/05/06 14:15:32;;;;;;;1.95;0.70;;;;;;;;;;5102081;28;20561;-41
2021/05/06 14:17:58;;;;;;;0.90;0.60;;;;;;;;;;5111638;28;20256;-41
2021/05/06 14:20:24;;;;;;;0.90;0.70;;;;;;;;;;5115132;28;20192;-41
2021/05/06 14:22:50;;;;;;;0.98;0.68;;;;;;;;;;5115390;28;20169;-41
2021/05/06 14:25:17;;;;;;;2.20;0.90;;;;;;;;;;5114789;28;20196;-41
2021/05/06 14:27:42;;;;;;;1.10;0.60;;;;;;;;;;5115496;28;20276;-41
2021/05/06 14:30:09;;;;;;;1.80;0.80;;;;;;;;;;5112960;28;20284;-41
2021/05/06 14:32:35;;;;;;;0.55;0.55;;;;;;;;;;5107617;28;20269;-41
2021/05/06 14:35:01;;;;;;;1.90;0.80;;;;;;;;;;5114713;28;20245;-41
2021/05/06 14:37:27;;;;;;;0.50;0.50;;;;;;;;;;5115123;28;20184;-41
2021/05/06 14:39:53;;;;;;;0.70;0.70;;;;;;;;;;5115131;28;20204;-41
2021/05/06 14:42:20;;;;;;;1.75;0.75;;;;;;;;;;5114438;28;20651;-41
2021/05/06 14:44:46;;;;;;;1.90;0.60;;;;;;;;;;5114246;28;20161;-41
2021/05/06 14:47:12;;;;;;;0.50;0.50;;;;;;;;;;5113897;28;20192;-41
2021/05/06 14:49:38;;;;;;;0.90;0.70;;;;;;;;;;5111881;28;20180;-41
2021/05/06 14:52:04;;;;;;;0.40;0.40;;;;;;;;;;5114023;28;20439;-41
2021/05/06 14:54:30;;;;;;;1.17;0.80;;;;;;;;;;5113471;28;20225;-41
2021/05/06 14:56:56;;;;;;;0.80;0.70;;;;;;;;;;5093383;28;20173;-41
2021/05/06 14:59:22;;;;;;;1.08;0.60;;;;;;;;;;5114795;28;20169;-41
2021/05/06 15:01:48;;;;;;;0.60;0.60;;;;;;;;;;5112914;28;20493;-41
2021/05/06 15:04:14;;;;;;;0.82;0.80;;;;;;;;;;5114824;28;20181;-41
2021/05/06 15:06:40;;;;;;;0.68;0.68;;;;;;;;;;5114804;28;20173;-41
2021/05/06 15:09:06;;;;;;;1.08;0.70;;;;;;;;;;5114025;28;20192;-41
2021/05/06 15:11:33;;;;;;;0.60;0.60;;;;;;;;;;5112996;28;20177;-41
2021/05/06 15:13:59;;;;;;;1.55;0.60;;;;;;;;;;5113906;28;20476;-41
2021/05/06 15:16:26;;;;;;;2.70;0.77;;;;;;;;;;5115065;28;20181;-41
2021/05/06 15:18:52;;;;;;;0.60;0.60;;;;;;;;;;5111964;28;20487;-41
2021/05/06 15:21:18;;;;;;;1.40;0.70;;;;;;;;;;5093758;28;20182;-41
2021/05/06 15:23:44;;;;;;;0.95;0.50;;;;;;;;;;5096369;28;20265;-41
2021/05/06 15:26:10;;;;;;;1.50;0.57;;;;;;;;;;5114507;28;20209;-41
2021/05/06 15:28:36;;;;;;;2.80;0.70;;;;;;;;;;5114089;28;20770;-41
2021/05/06 15:31:02;;;;;;;1.80;0.70;;;;;;;;;;5113829;28;20482;-41
2021/05/06 15:33:28;;;;;;;0.70;0.70;;;;;;;;;;5113026;28;20181;-41
2021/05/06 15:35:54;;;;;;;1.80;0.50;;;;;;;;;;5110765;28;20174;-41
2021/05/06 15:38:20;;;;;;;2.33;0.70;;;;;;;;;;5111798;28;20200;-41
2021/05/06 15:40:47;;;;;;;2.00;0.40;;;;;;;;;;5094347;28;20272;-41
2021/05/06 15:43:14;;;;;;;0.65;0.65;;;;;;;;;;5110698;28;20181;-41
2021/05/06 15:45:43;;;;;;;1.98;0.85;;;;;;;;;;5111568;28;20181;-41
2021/05/06 15:48:09;;;;;;;1.30;0.93;;;;;;;;;;5110871;28;20185;-41
2021/05/06 15:50:35;;;;;;;1.25;0.60;;;;;;;;;;5112545;28;20188;-41
2021/05/06 15:53:01;;;;;;;1.95;0.70;;;;;;;;;;5109043;28;20462;-41
2021/05/06 15:55:29;;;;;;;1.02;0.60;;;;;;;;;;5112941;28;20193;-41
2021/05/06 15:57:55;;;;;;;1.23;0.65;;;;;;;;;;5109952;28;20185;-41
2021/05/06 16:00:24;;;;;;;0.85;0.77;;;;;;;;;;5112627;28;20506;-41
2021/05/06 16:02:51;;;;;;;1.23;0.70;;;;;;;;;;5114656;28;20177;-41
2021/05/06 16:05:23;;;;;;;2.35;1.02;;;;;;;;;;5117431;28;20180;-41
2021/05/06 16:07:49;;;;;;;1.83;0.75;;;;;;;;;;5114841;28;20625;-41
2021/05/06 16:10:15;;;;;;;1.67;0.80;;;;;;;;;;5115286;28;20204;-41
2021/05/06 16:12:41;;;;;;;2.63;0.80;;;;;;;;;;5115715;28;20219;-41
2021/05/06 16:15:08;;;;;;;0.75;0.70;;;;;;;;;;5117117;28;20588;-41
2021/05/06 16:17:34;;;;;;;1.58;0.90;;;;;;;;;;5117300;28;20215;-41
2021/05/06 16:20:02;;;;;;;2.58;1.05;;;;;;;;;;5115511;28;20440;-41
2021/05/06 16:22:28;;;;;;;3.05;1.00;;;;;;;;;;5113841;28;20548;-41
2021/05/06 16:24:54;;;;;;;4.03;0.98;;;;;;;;;;5116840;28;20188;-41
2021/05/06 16:27:20;;;;;;;6.93;1.17;;;;;;;;;;5116443;28;20747;-41
2021/05/06 16:29:46;;;;;;;1.85;0.90;;;;;;;;;;5113330;28;20197;-41
2021/05/06 16:32:12;;;;;;;1.73;0.80;;;;;;;;;;5116097;28;20296;-41
2021/05/06 16:34:41;;;;;;;3.05;0.93;;;;;;;;;;5116667;28;20470;-41
2021/05/06 16:37:15;;;;;;;4.43;1.05;;;;;;;;;;5115810;28;20185;-41
2021/05/06 16:44:52;;;;;;;1.65;0.85;;;;;;;;;;5115819;28;20207;-41
2021/05/06 16:47:18;;;;;;;2.35;0.80;;;;;;;;;;5106909;28;20176;-41
2021/05/06 16:49:44;;;;;;;2.58;1.00;;;;;;;;;;5108907;28;20181;-41
2021/05/06 16:52:10;;;;;;;2.00;0.93;;;;;;;;;;5115247;28;20192;-41
2021/05/06 16:54:37;;;;;;;1.02;0.80;;;;;;;;;;5098209;28;20205;-41
2021/05/06 16:57:03;;;;;;;2.08;0.95;;;;;;;;;;5116373;28;20177;-41
2021/05/06 16:59:29;;;;;;;3.75;0.90;;;;;;;;;;5113223;28;20230;-41
2021/05/06 17:01:55;;;;;;;2.03;0.90;;;;;;;;;;5113943;28;20187;-41
2021/05/06 17:04:21;;;;;;;1.15;0.90;;;;;;;;;;5116105;28;20185;-41
2021/05/06 17:06:48;;;;;;;0.95;0.75;;;;;;;;;;5116013;28;20271;-41
2021/05/06 17:09:14;;;;;;;0.90;0.75;;;;;;;;;;5114911;28;20184;-41
2021/05/06 17:11:41;;;;;;;3.40;0.80;;;;;;;;;;5111893;28;20185;-41
2021/05/06 17:14:08;;;;;;;2.25;1.00;;;;;;;;;;5114311;28;20213;-41
2021/05/06 17:16:34;;;;;;;5.32;1.63;;;;;;;;;;5113898;28;20189;-41
2021/05/06 17:19:01;;;;;;;3.60;2.30;;;;;;;;;;5115050;28;20192;-41
2021/05/06 17:21:27;;;;;;;6.13;3.50;;;;;;;;;;5112720;28;20193;-41
2021/05/06 17:23:53;;;;;;;7.10;4.78;;;;;;;;;;5115159;28;20184;-41
2021/05/06 17:26:20;;;;;;;13.35;6.88;;;;;;;;;;5111183;28;20520;-41
2021/05/06 17:28:46;;;;;;;12.98;6.97;;;;;;;;;;5113740;28;20256;-41
2021/05/06 17:31:12;;;;;;;10.90;6.40;;;;;;;;;;5113553;28;20196;-41
2021/05/06 17:33:38;;;;;;;10.48;6.68;;;;;;;;;;5114407;28;20337;-41
2021/05/06 17:36:05;;;;;;;11.05;6.18;;;;;;;;;;5109501;28;20177;-41
2021/05/06 17:38:31;;;;;;;10.85;4.80;;;;;;;;;;5116179;28;20176;-41
2021/05/06 17:40:57;;;;;;;7.30;4.60;;;;;;;;;;5114595;28;20185;-41
2021/05/06 17:43:23;;;;;;;8.50;4.65;;;;;;;;;;5111686;28;20222;-41
2021/05/06 17:45:53;;;;;;;10.75;4.00;;;;;;;;;;5111941;28;20181;-41
2021/05/06 17:48:19;;;;;;;8.10;3.72;;;;;;;;;;5115121;28;20184;-41
2021/05/06 17:50:46;;;;;;;8.32;3.30;;;;;;;;;;5112682;28;20177;-41
2021/05/06 17:53:12;;;;;;;9.43;2.80;;;;;;;;;;5114314;28;20189;-41
2021/05/06 17:55:38;;;;;;;7.97;2.95;;;;;;;;;;5114632;28;20459;-41
2021/05/06 17:58:04;;;;;;;9.43;3.33;;;;;;;;;;5115181;28;20511;-41
2021/05/06 18:00:30;;;;;;;7.05;3.17;;;;;;;;;;5114361;28;20237;-41
2021/05/06 18:02:57;;;;;;;9.43;3.20;;;;;;;;;;5111913;28;20173;-41
2021/05/06 18:05:23;;;;;;;10.50;3.33;;;;;;;;;;5114086;28;20310;-41
2021/05/06 18:07:49;;;;;;;18.90;3.97;;;;;;;;;;5094113;28;20237;-41
2021/05/06 18:12:47;;;;;;;9.77;2.90;;;;;;;;;;5114405;28;20185;-41
2021/05/06 18:15:13;;;;;;;9.45;2.80;;;;;;;;;;5113296;28;20571;-41
2021/05/06 18:17:39;;;;;;;10.40;2.67;;;;;;;;;;5114722;28;20574;-41
2021/05/06 18:20:06;;;;;;;9.18;2.67;;;;;;;;;;5112517;28;20188;-41